Time;durP1;ratioP1;P1;durP2;ratioP2;P2;SDS_P1;SDS_P2;PMS_P1;PMS_P2;Temp;Humidity;BMP_temperature;BMP_pressure;BME280_temperature;BME280_humidity;BME280_pressure;Samples;Min_cycle;Max_cycle;Signal;HPM_P1;HPM_P2
2021/05/21 00:00:10;;;;;;;0.50;0.20;;;;;;;;;;4961154;28;20108;-75
2021/05/21 00:02:35;;;;;;;1.55;0.55;;;;;;;;;;4973784;28;20030;-76
2021/05/21 00:05:00;;;;;;;1.40;0.30;;;;;;;;;;4951845;28;20069;-75
2021/05/21 00:07:26;;;;;;;0.80;0.30;;;;;;;;;;4961064;28;20061;-76
2021/05/21 00:09:51;;;;;;;0.80;0.30;;;;;;;;;;4975030;28;20068;-75
2021/05/21 00:12:16;;;;;;;0.90;0.40;;;;;;;;;;4958071;28;20046;-75
2021/05/21 00:14:42;;;;;;;1.23;0.37;;;;;;;;;;4941955;28;20026;-75
2021/05/21 00:17:07;;;;;;;0.30;0.20;;;;;;;;;;4976899;28;20030;-76
2021/05/21 00:19:32;;;;;;;0.87;0.37;;;;;;;;;;4977075;28;20062;-76
2021/05/21 00:21:58;;;;;;;1.40;0.40;;;;;;;;;;4966199;28;20065;-76
2021/05/21 00:24:23;;;;;;;0.73;0.37;;;;;;;;;;4957803;28;20074;-76
2021/05/21 00:26:50;;;;;;;0.57;0.37;;;;;;;;;;4958090;28;20049;-75
2021/05/21 00:29:16;;;;;;;1.50;0.50;;;;;;;;;;4961352;28;20112;-75
2021/05/21 00:31:42;;;;;;;0.63;0.40;;;;;;;;;;4960888;28;20027;-76
2021/05/21 00:34:07;;;;;;;1.00;0.30;;;;;;;;;;4960793;28;20078;-75
2021/05/21 00:36:32;;;;;;;1.17;0.30;;;;;;;;;;4944819;28;20118;-76
2021/05/21 00:38:58;;;;;;;1.00;0.40;;;;;;;;;;4957620;28;20055;-76
2021/05/21 00:41:25;;;;;;;0.70;0.30;;;;;;;;;;4975884;28;20510;-75
2021/05/21 00:43:54;;;;;;;0.80;0.30;;;;;;;;;;4960728;28;20033;-75
2021/05/21 00:46:20;;;;;;;1.17;0.30;;;;;;;;;;4946779;28;20038;-75
2021/05/21 00:48:45;;;;;;;0.83;0.40;;;;;;;;;;4957498;28;20026;-76
2021/05/21 00:51:10;;;;;;;0.93;0.30;;;;;;;;;;4957316;28;20110;-76
2021/05/21 00:53:36;;;;;;;0.97;0.33;;;;;;;;;;4941852;28;20081;-76
2021/05/21 00:56:01;;;;;;;0.50;0.30;;;;;;;;;;4950724;28;20050;-76
2021/05/21 00:58:26;;;;;;;0.70;0.30;;;;;;;;;;4957400;28;20526;-76
2021/05/21 01:00:52;;;;;;;0.90;0.40;;;;;;;;;;4957317;28;20034;-76
2021/05/21 01:03:18;;;;;;;0.80;0.30;;;;;;;;;;4941157;28;20031;-76
2021/05/21 01:05:43;;;;;;;2.53;0.40;;;;;;;;;;4967423;28;20042;-76
2021/05/21 01:08:08;;;;;;;0.63;0.30;;;;;;;;;;4958087;28;20125;-76
2021/05/21 01:10:34;;;;;;;0.67;0.40;;;;;;;;;;4957546;28;20058;-76
2021/05/21 01:12:59;;;;;;;0.83;0.37;;;;;;;;;;4986097;28;20027;-76
2021/05/21 01:15:24;;;;;;;0.30;0.20;;;;;;;;;;4950049;28;20512;-76
2021/05/21 01:17:50;;;;;;;0.90;0.30;;;;;;;;;;4940949;28;20066;-76
2021/05/21 01:20:15;;;;;;;0.80;0.30;;;;;;;;;;4957029;28;20055;-75
2021/05/21 01:22:41;;;;;;;0.87;0.43;;;;;;;;;;4974295;28;20029;-76
2021/05/21 01:25:06;;;;;;;1.13;0.30;;;;;;;;;;4965354;28;20113;-75
2021/05/21 01:27:32;;;;;;;2.07;0.40;;;;;;;;;;4960172;28;20113;-75
2021/05/21 01:29:57;;;;;;;0.43;0.27;;;;;;;;;;4938860;28;20058;-75
2021/05/21 01:32:22;;;;;;;0.70;0.30;;;;;;;;;;4956907;28;20042;-76
2021/05/21 01:34:48;;;;;;;2.63;0.40;;;;;;;;;;4962795;28;20054;-76
2021/05/21 01:37:18;;;;;;;1.10;0.30;;;;;;;;;;4956885;28;20058;-75
2021/05/21 01:39:43;;;;;;;0.73;0.30;;;;;;;;;;4956781;28;20058;-76
2021/05/21 01:42:12;;;;;;;0.43;0.30;;;;;;;;;;4940716;28;20050;-75
2021/05/21 01:44:41;;;;;;;0.30;0.20;;;;;;;;;;4963963;28;20030;-76
2021/05/21 01:47:07;;;;;;;1.40;0.30;;;;;;;;;;4973566;28;20490;-76
2021/05/21 01:49:32;;;;;;;0.50;0.30;;;;;;;;;;4956821;28;20031;-76
2021/05/21 01:51:59;;;;;;;2.37;0.40;;;;;;;;;;4940750;28;20034;-76
2021/05/21 01:54:25;;;;;;;0.70;0.30;;;;;;;;;;4958560;28;20109;-76
2021/05/21 01:56:52;;;;;;;0.73;0.33;;;;;;;;;;4956075;28;20472;-76
2021/05/21 01:59:21;;;;;;;0.65;0.40;;;;;;;;;;4960454;28;20026;-76
2021/05/21 02:01:46;;;;;;;0.68;0.30;;;;;;;;;;4960190;28;20101;-75
2021/05/21 02:04:12;;;;;;;0.87;0.40;;;;;;;;;;4975710;28;20108;-76
2021/05/21 02:06:38;;;;;;;1.02;0.30;;;;;;;;;;4974659;28;20560;-76
2021/05/21 02:09:04;;;;;;;0.63;0.30;;;;;;;;;;4976099;28;20057;-76
2021/05/21 02:11:29;;;;;;;0.97;0.30;;;;;;;;;;4975874;28;20394;-76
2021/05/21 02:13:54;;;;;;;0.90;0.30;;;;;;;;;;4966327;28;20031;-76
2021/05/21 02:16:20;;;;;;;0.50;0.30;;;;;;;;;;4996109;28;20117;-76
2021/05/21 02:18:45;;;;;;;1.00;0.37;;;;;;;;;;4946432;28;20513;-75
2021/05/21 02:21:10;;;;;;;0.40;0.30;;;;;;;;;;4962633;28;20499;-76
2021/05/21 02:23:36;;;;;;;1.27;0.33;;;;;;;;;;4996424;28;20080;-75
2021/05/21 02:26:01;;;;;;;0.70;0.40;;;;;;;;;;4946952;28;20030;-76
2021/05/21 02:28:26;;;;;;;1.10;0.30;;;;;;;;;;4959836;28;20061;-75
2021/05/21 02:30:52;;;;;;;0.63;0.30;;;;;;;;;;4945988;28;20519;-76
2021/05/21 02:33:17;;;;;;;1.23;0.33;;;;;;;;;;4963056;28;20125;-76
2021/05/21 02:35:42;;;;;;;0.77;0.30;;;;;;;;;;4949381;28;20117;-76
2021/05/21 02:38:08;;;;;;;0.57;0.40;;;;;;;;;;4977308;28;20050;-76
2021/05/21 02:40:33;;;;;;;0.70;0.33;;;;;;;;;;4971884;28;20058;-76
2021/05/21 02:42:58;;;;;;;0.57;0.30;;;;;;;;;;4962815;28;20509;-75
2021/05/21 02:45:24;;;;;;;0.73;0.37;;;;;;;;;;4951967;28;20498;-75
2021/05/21 02:47:49;;;;;;;0.60;0.33;;;;;;;;;;4943470;28;20398;-76
2021/05/21 02:50:14;;;;;;;0.97;0.33;;;;;;;;;;4959468;28;20110;-75
2021/05/21 02:52:40;;;;;;;0.33;0.23;;;;;;;;;;4943304;28;20501;-76
2021/05/21 02:55:06;;;;;;;0.40;0.20;;;;;;;;;;4967594;28;20114;-76
2021/05/21 02:57:31;;;;;;;0.57;0.20;;;;;;;;;;4992698;28;20027;-76
2021/05/21 02:59:56;;;;;;;0.93;0.30;;;;;;;;;;4976596;28;20058;-76
2021/05/21 03:02:22;;;;;;;1.07;0.30;;;;;;;;;;4959138;28;20063;-76
2021/05/21 03:04:48;;;;;;;1.38;0.35;;;;;;;;;;4949994;28;20433;-76
2021/05/21 03:07:13;;;;;;;0.30;0.27;;;;;;;;;;4978568;28;20030;-76
2021/05/21 03:09:39;;;;;;;0.60;0.30;;;;;;;;;;4973635;28;20406;-76
2021/05/21 03:12:04;;;;;;;0.40;0.30;;;;;;;;;;4975752;28;20061;-76
2021/05/21 03:14:30;;;;;;;0.40;0.30;;;;;;;;;;4973637;28;20058;-76
2021/05/21 03:16:55;;;;;;;0.87;0.30;;;;;;;;;;4958981;28;20066;-76
2021/05/21 03:19:20;;;;;;;0.97;0.30;;;;;;;;;;4959037;28;20050;-75
2021/05/21 03:21:46;;;;;;;0.70;0.30;;;;;;;;;;4942690;28;20026;-76
2021/05/21 03:24:11;;;;;;;0.57;0.27;;;;;;;;;;4959071;28;20066;-75
2021/05/21 03:26:36;;;;;;;1.30;0.40;;;;;;;;;;4978193;23;20077;-74
2021/05/21 03:29:02;;;;;;;0.40;0.30;;;;;;;;;;4977314;28;20070;-74
2021/05/21 03:31:27;;;;;;;0.77;0.30;;;;;;;;;;4965521;28;20042;-74
2021/05/21 03:33:53;;;;;;;0.50;0.30;;;;;;;;;;4923696;29;20031;-74
2021/05/21 03:36:18;;;;;;;0.40;0.30;;;;;;;;;;4939480;29;20178;-74
2021/05/21 03:38:43;;;;;;;0.57;0.30;;;;;;;;;;4923629;29;20121;-74
2021/05/21 03:41:10;;;;;;;0.80;0.40;;;;;;;;;;4946780;29;20067;-74
2021/05/21 03:43:36;;;;;;;0.80;0.30;;;;;;;;;;4923849;29;20041;-74
2021/05/21 03:46:01;;;;;;;0.93;0.30;;;;;;;;;;4939366;29;20109;-74
2021/05/21 03:48:26;;;;;;;0.30;0.20;;;;;;;;;;4929839;28;20066;-74
2021/05/21 03:50:52;;;;;;;0.57;0.30;;;;;;;;;;4951804;29;20101;-74
2021/05/21 03:53:17;;;;;;;0.23;0.13;;;;;;;;;;4939023;29;20051;-74
2021/05/21 03:55:42;;;;;;;0.93;0.30;;;;;;;;;;4923150;29;20505;-74
2021/05/21 03:58:08;;;;;;;0.50;0.30;;;;;;;;;;4939274;29;20031;-74
2021/05/21 04:00:33;;;;;;;1.23;0.40;;;;;;;;;;4942762;28;20037;-74
2021/05/21 04:02:58;;;;;;;0.37;0.20;;;;;;;;;;4957409;28;20051;-74
2021/05/21 04:05:24;;;;;;;0.50;0.23;;;;;;;;;;4941156;28;20086;-74
2021/05/21 04:07:49;;;;;;;0.20;0.20;;;;;;;;;;4975499;28;20130;-74
2021/05/21 04:10:15;;;;;;;0.60;0.30;;;;;;;;;;4956420;28;20394;-74
2021/05/21 04:12:40;;;;;;;0.50;0.20;;;;;;;;;;4922972;29;20027;-74
2021/05/21 04:15:06;;;;;;;0.43;0.27;;;;;;;;;;4938824;29;20023;-74
2021/05/21 04:17:32;;;;;;;0.60;0.30;;;;;;;;;;4923206;29;20049;-74
2021/05/21 04:19:57;;;;;;;0.40;0.30;;;;;;;;;;4923700;29;20063;-74
2021/05/21 04:22:22;;;;;;;0.70;0.30;;;;;;;;;;4973569;28;20058;-73
2021/05/21 04:24:48;;;;;;;0.50;0.30;;;;;;;;;;4957924;28;20019;-73
2021/05/21 04:27:13;;;;;;;1.33;0.30;;;;;;;;;;4946408;28;20549;-73
2021/05/21 04:29:39;;;;;;;0.47;0.20;;;;;;;;;;4973493;28;20050;-74
2021/05/21 04:32:05;;;;;;;1.00;0.40;;;;;;;;;;4938358;29;20426;-74
2021/05/21 04:34:31;;;;;;;0.50;0.30;;;;;;;;;;4939677;29;20027;-74
2021/05/21 04:36:57;;;;;;;0.90;0.30;;;;;;;;;;4939293;28;20069;-74
2021/05/21 04:39:23;;;;;;;1.65;0.30;;;;;;;;;;4922816;29;20038;-73
2021/05/21 04:41:48;;;;;;;0.60;0.30;;;;;;;;;;4938370;29;20035;-74
2021/05/21 04:44:14;;;;;;;0.70;0.30;;;;;;;;;;4923459;28;20069;-74
2021/05/21 04:46:39;;;;;;;0.77;0.30;;;;;;;;;;4942651;28;20066;-74
2021/05/21 04:49:04;;;;;;;1.23;0.30;;;;;;;;;;4972364;28;20066;-74
2021/05/21 04:51:30;;;;;;;0.73;0.20;;;;;;;;;;4922154;28;20024;-74
2021/05/21 04:53:55;;;;;;;0.30;0.20;;;;;;;;;;4938254;29;20031;-74
2021/05/21 04:56:20;;;;;;;0.50;0.23;;;;;;;;;;4939355;28;20457;-73
2021/05/21 04:58:46;;;;;;;0.73;0.40;;;;;;;;;;4922228;29;20146;-74
2021/05/21 05:01:11;;;;;;;0.60;0.27;;;;;;;;;;4922676;28;20023;-74
2021/05/21 05:03:36;;;;;;;0.43;0.30;;;;;;;;;;4974032;28;20041;-74
2021/05/21 05:06:02;;;;;;;0.53;0.23;;;;;;;;;;4939494;28;20077;-74
2021/05/21 05:08:28;;;;;;;0.30;0.30;;;;;;;;;;4964404;28;20574;-74
2021/05/21 05:10:53;;;;;;;0.35;0.20;;;;;;;;;;4940661;28;20034;-74
2021/05/21 05:13:18;;;;;;;1.43;0.30;;;;;;;;;;4951071;28;20026;-74
2021/05/21 05:15:44;;;;;;;0.80;0.30;;;;;;;;;;4932026;28;20494;-74
2021/05/21 05:18:09;;;;;;;0.80;0.30;;;;;;;;;;4957041;28;20046;-74
2021/05/21 05:20:35;;;;;;;0.30;0.20;;;;;;;;;;4937839;29;20114;-74
2021/05/21 05:23:00;;;;;;;2.80;0.30;;;;;;;;;;4954948;28;20047;-74
2021/05/21 05:25:26;;;;;;;0.40;0.30;;;;;;;;;;4921548;28;20474;-74
2021/05/21 05:27:51;;;;;;;0.30;0.20;;;;;;;;;;4953365;28;20031;-74
2021/05/21 05:30:18;;;;;;;0.90;0.40;;;;;;;;;;4937784;28;20499;-74
2021/05/21 05:32:43;;;;;;;0.85;0.30;;;;;;;;;;4934310;29;20020;-74
2021/05/21 05:35:09;;;;;;;0.50;0.30;;;;;;;;;;4934332;29;20113;-74
2021/05/21 05:37:34;;;;;;;2.83;0.30;;;;;;;;;;4949880;28;20040;-74
2021/05/21 05:39:59;;;;;;;0.30;0.10;;;;;;;;;;4950408;29;20406;-74
2021/05/21 05:42:25;;;;;;;0.57;0.30;;;;;;;;;;4934077;29;20054;-74
2021/05/21 05:44:50;;;;;;;0.57;0.30;;;;;;;;;;4950351;29;20055;-74
2021/05/21 05:47:16;;;;;;;0.73;0.30;;;;;;;;;;4950275;29;20030;-74
2021/05/21 05:49:41;;;;;;;0.60;0.30;;;;;;;;;;4921869;28;20031;-74
2021/05/21 05:52:06;;;;;;;0.33;0.20;;;;;;;;;;4950584;29;20054;-74
2021/05/21 05:54:32;;;;;;;0.80;0.37;;;;;;;;;;4925744;29;20102;-74
2021/05/21 05:56:57;;;;;;;0.97;0.37;;;;;;;;;;4956703;28;20061;-75
2021/05/21 05:59:27;;;;;;;0.40;0.20;;;;;;;;;;4944271;28;20109;-74
2021/05/21 06:01:52;;;;;;;0.80;0.30;;;;;;;;;;4945392;28;20026;-74
2021/05/21 06:04:17;;;;;;;0.57;0.30;;;;;;;;;;4977307;28;20034;-74
2021/05/21 06:06:43;;;;;;;0.43;0.30;;;;;;;;;;4944373;28;20429;-73
2021/05/21 06:09:09;;;;;;;1.83;0.30;;;;;;;;;;4943921;28;20027;-74
2021/05/21 06:11:35;;;;;;;1.02;0.20;;;;;;;;;;4977360;28;20033;-74
2021/05/21 06:14:00;;;;;;;0.40;0.20;;;;;;;;;;4944227;28;20030;-74
2021/05/21 06:16:25;;;;;;;0.50;0.30;;;;;;;;;;4944205;28;20069;-74
2021/05/21 06:18:51;;;;;;;0.47;0.30;;;;;;;;;;4944207;28;20061;-74
2021/05/21 06:21:16;;;;;;;1.43;0.20;;;;;;;;;;4944009;28;20050;-74
2021/05/21 06:23:44;;;;;;;0.50;0.30;;;;;;;;;;4959934;28;20398;-74
2021/05/21 06:26:34;;;;;;;0.80;0.30;;;;;;;;;;4943584;28;20501;-75
2021/05/21 06:28:55;;;;;;;0.68;0.30;;;;;;;;;;4961318;28;20081;-74
2021/05/21 06:31:21;;;;;;;1.07;0.40;;;;;;;;;;4941912;28;20023;-74
2021/05/21 06:33:46;;;;;;;0.97;0.40;;;;;;;;;;4957700;28;20030;-74
2021/05/21 06:36:11;;;;;;;1.53;0.40;;;;;;;;;;4957627;28;20026;-74
2021/05/21 06:38:37;;;;;;;1.27;0.30;;;;;;;;;;4941602;28;20442;-74
2021/05/21 06:41:03;;;;;;;0.57;0.32;;;;;;;;;;4941671;28;20089;-74
2021/05/21 06:43:28;;;;;;;1.37;0.30;;;;;;;;;;4925732;28;20456;-74
2021/05/21 06:45:54;;;;;;;1.43;0.30;;;;;;;;;;4959545;28;20026;-74
2021/05/21 06:48:21;;;;;;;1.20;0.40;;;;;;;;;;4943526;28;20445;-74
2021/05/21 06:50:46;;;;;;;0.45;0.30;;;;;;;;;;4959713;28;20022;-74
2021/05/21 06:53:12;;;;;;;1.03;0.23;;;;;;;;;;4975566;28;20030;-74
2021/05/21 06:55:39;;;;;;;1.87;0.40;;;;;;;;;;4959581;28;20058;-74
2021/05/21 06:58:04;;;;;;;1.08;0.40;;;;;;;;;;4976124;28;20095;-74
2021/05/21 07:00:29;;;;;;;1.10;0.30;;;;;;;;;;4976501;28;20564;-74
2021/05/21 07:02:55;;;;;;;0.53;0.30;;;;;;;;;;4942490;28;20051;-74
2021/05/21 07:05:20;;;;;;;1.00;0.40;;;;;;;;;;4939213;28;20023;-74
2021/05/21 07:07:45;;;;;;;0.83;0.40;;;;;;;;;;4955760;28;20050;-74
2021/05/21 07:10:11;;;;;;;0.60;0.30;;;;;;;;;;4955724;28;20581;-74
2021/05/21 07:12:37;;;;;;;0.50;0.28;;;;;;;;;;4939440;28;20077;-74
2021/05/21 07:15:05;;;;;;;1.33;0.30;;;;;;;;;;4939344;28;20113;-74
2021/05/21 07:17:31;;;;;;;1.35;0.30;;;;;;;;;;4955763;28;20401;-74
2021/05/21 07:19:56;;;;;;;1.07;0.30;;;;;;;;;;4939648;28;20129;-74
2021/05/21 07:22:22;;;;;;;1.30;0.40;;;;;;;;;;4939430;28;20146;-74
2021/05/21 07:24:48;;;;;;;0.73;0.43;;;;;;;;;;4939775;28;20121;-74
2021/05/21 07:27:13;;;;;;;0.73;0.30;;;;;;;;;;4939012;28;20031;-74
2021/05/21 07:29:38;;;;;;;0.90;0.30;;;;;;;;;;4972744;28;20147;-74
2021/05/21 07:32:04;;;;;;;0.77;0.30;;;;;;;;;;4955306;28;20023;-75
2021/05/21 07:34:29;;;;;;;0.83;0.37;;;;;;;;;;4939216;28;20486;-74
2021/05/21 07:36:55;;;;;;;2.60;0.40;;;;;;;;;;4955017;28;20061;-75
2021/05/21 07:39:20;;;;;;;0.50;0.40;;;;;;;;;;4938705;28;20027;-74
2021/05/21 07:41:45;;;;;;;0.20;0.20;;;;;;;;;;4955027;28;20023;-75
2021/05/21 07:44:11;;;;;;;0.63;0.40;;;;;;;;;;4951525;29;20106;-74
2021/05/21 07:46:37;;;;;;;0.90;0.30;;;;;;;;;;4936003;29;20116;-73
2021/05/21 07:49:02;;;;;;;0.50;0.30;;;;;;;;;;4935881;29;20131;-74
2021/05/21 07:51:27;;;;;;;1.03;0.40;;;;;;;;;;4935524;28;20035;-74
2021/05/21 07:53:53;;;;;;;1.63;0.47;;;;;;;;;;4946610;28;20117;-74
2021/05/21 07:56:18;;;;;;;1.10;0.30;;;;;;;;;;4970906;28;20190;-74
2021/05/21 07:58:43;;;;;;;1.13;0.30;;;;;;;;;;4942179;28;20494;-75
2021/05/21 08:01:09;;;;;;;1.43;0.37;;;;;;;;;;4941519;28;20062;-75
2021/05/21 08:03:34;;;;;;;0.73;0.40;;;;;;;;;;4941753;28;20081;-75
2021/05/21 08:06:00;;;;;;;0.40;0.30;;;;;;;;;;4922821;29;20069;-75
2021/05/21 08:08:25;;;;;;;1.13;0.30;;;;;;;;;;4953982;28;20109;-75
2021/05/21 08:10:51;;;;;;;1.83;0.30;;;;;;;;;;4955615;28;20037;-74
2021/05/21 08:13:17;;;;;;;1.13;0.30;;;;;;;;;;4944497;28;20073;-74
2021/05/21 08:15:42;;;;;;;0.73;0.33;;;;;;;;;;4933565;29;20502;-74
2021/05/21 08:18:08;;;;;;;0.80;0.30;;;;;;;;;;4956467;28;20125;-74
2021/05/21 08:20:33;;;;;;;0.73;0.30;;;;;;;;;;4941912;28;20033;-74
2021/05/21 08:22:58;;;;;;;0.70;0.30;;;;;;;;;;4938885;28;20454;-74
2021/05/21 08:25:24;;;;;;;0.80;0.30;;;;;;;;;;4945291;29;20031;-75
2021/05/21 08:27:50;;;;;;;1.03;0.30;;;;;;;;;;4954368;28;20509;-74
2021/05/21 08:30:16;;;;;;;0.77;0.28;;;;;;;;;;4956140;28;20557;-74
2021/05/21 08:32:41;;;;;;;0.47;0.30;;;;;;;;;;4971461;28;20041;-74
2021/05/21 08:35:07;;;;;;;1.10;0.40;;;;;;;;;;4952004;28;20100;-74
2021/05/21 08:37:33;;;;;;;0.80;0.33;;;;;;;;;;4917192;29;20611;-74
2021/05/21 08:39:58;;;;;;;0.50;0.30;;;;;;;;;;4948179;28;20910;-74
2021/05/21 08:42:23;;;;;;;0.93;0.30;;;;;;;;;;4906454;29;20432;-74
2021/05/21 08:44:49;;;;;;;1.07;0.40;;;;;;;;;;4922336;29;20081;-74
2021/05/21 08:47:15;;;;;;;1.00;0.38;;;;;;;;;;4922537;29;20062;-74
2021/05/21 08:49:40;;;;;;;0.77;0.30;;;;;;;;;;4922927;29;20432;-74
2021/05/21 08:52:06;;;;;;;0.53;0.23;;;;;;;;;;4931842;28;20482;-74
2021/05/21 08:54:35;;;;;;;1.00;0.30;;;;;;;;;;4971115;28;20034;-74
2021/05/21 08:57:07;;;;;;;2.67;0.40;;;;;;;;;;4932969;28;20033;-74
2021/05/21 08:59:33;;;;;;;1.65;0.30;;;;;;;;;;4922550;29;20110;-74
2021/05/21 09:01:59;;;;;;;0.95;0.30;;;;;;;;;;4963310;28;20118;-74
2021/05/21 09:04:35;;;;;;;1.47;0.30;;;;;;;;;;4957585;28;20511;-74
2021/05/21 09:07:00;;;;;;;1.67;0.50;;;;;;;;;;4940825;28;20054;-74
2021/05/21 09:09:26;;;;;;;0.70;0.30;;;;;;;;;;4956834;28;20321;-74
2021/05/21 09:11:51;;;;;;;0.50;0.20;;;;;;;;;;4941139;28;20055;-74
2021/05/21 09:14:18;;;;;;;1.63;0.30;;;;;;;;;;4941016;28;20066;-74
2021/05/21 09:16:44;;;;;;;0.88;0.35;;;;;;;;;;4909154;29;20046;-73
2021/05/21 09:19:10;;;;;;;0.80;0.32;;;;;;;;;;4954010;28;20525;-74
2021/05/21 09:22:02;;;;;;;0.30;0.30;;;;;;;;;;4956893;28;20031;-74
2021/05/21 09:24:48;;;;;;;0.70;0.30;;;;;;;;;;4976498;28;20121;-74
2021/05/21 09:29:53;;;;;;;1.45;0.40;;;;;;;;;;5009594;28;20043;-78
2021/05/21 09:32:20;;;;;;;;;;;;;;;;;;5003602;28;20036;-78
2021/05/21 09:34:49;;;;;;;0.65;0.30;;;;;;;;;;5027969;28;19933;-78
2021/05/21 09:37:24;;;;;;;0.60;0.30;;;;;;;;;;5020827;28;20057;-78
2021/05/21 09:40:04;;;;;;;2.17;0.30;;;;;;;;;;5029365;28;20028;-78
2021/05/21 09:42:43;;;;;;;0.82;0.30;;;;;;;;;;5017001;28;20149;-78
2021/05/21 09:45:47;;;;;;;1.27;0.40;;;;;;;;;;5005956;28;20085;-78
2021/05/21 09:48:12;;;;;;;0.85;0.30;;;;;;;;;;4934087;29;20035;-78
2021/05/21 09:50:46;;;;;;;0.80;0.40;;;;;;;;;;4943891;29;20039;-79
2021/05/21 09:53:15;;;;;;;0.70;0.28;;;;;;;;;;4983434;28;20069;-79
2021/05/21 09:55:44;;;;;;;1.35;0.40;;;;;;;;;;5020904;28;20022;-77
2021/05/21 09:58:28;;;;;;;0.57;0.32;;;;;;;;;;5024963;28;20029;-77
2021/05/21 10:01:09;;;;;;;0.70;0.38;;;;;;;;;;5022290;28;20084;-76
2021/05/21 10:03:39;;;;;;;0.65;0.30;;;;;;;;;;5009925;28;20539;-76
2021/05/21 10:06:04;;;;;;;1.25;0.30;;;;;;;;;;4988710;28;20051;-76
2021/05/21 10:08:30;;;;;;;1.17;0.30;;;;;;;;;;4994436;28;20469;-76
2021/05/21 10:10:55;;;;;;;1.23;0.32;;;;;;;;;;5024133;28;20034;-76
2021/05/21 10:13:21;;;;;;;0.60;0.30;;;;;;;;;;5000922;28;20062;-76
2021/05/21 10:15:46;;;;;;;1.40;0.30;;;;;;;;;;4989133;28;20039;-76
2021/05/21 10:18:13;;;;;;;1.63;0.30;;;;;;;;;;5024449;28;20062;-76
2021/05/21 10:20:39;;;;;;;0.75;0.30;;;;;;;;;;5019479;28;20037;-76
2021/05/21 10:23:04;;;;;;;2.00;0.33;;;;;;;;;;4992925;28;20017;-76
2021/05/21 10:25:31;;;;;;;1.13;0.30;;;;;;;;;;5005459;28;20033;-76
2021/05/21 10:27:57;;;;;;;0.73;0.30;;;;;;;;;;5023616;28;20037;-76
2021/05/21 10:30:25;;;;;;;1.90;0.33;;;;;;;;;;4970708;28;20034;-76
2021/05/21 10:32:56;;;;;;;0.68;0.30;;;;;;;;;;4971794;28;20022;-76
2021/05/21 10:35:22;;;;;;;0.63;0.30;;;;;;;;;;4978400;28;20038;-76
2021/05/21 10:37:48;;;;;;;0.77;0.30;;;;;;;;;;5004333;28;20061;-76
2021/05/21 10:40:21;;;;;;;0.63;0.30;;;;;;;;;;5004665;28;20022;-76
2021/05/21 10:42:47;;;;;;;1.10;0.40;;;;;;;;;;5004824;28;20097;-76
2021/05/21 10:45:19;;;;;;;1.02;0.30;;;;;;;;;;4997266;28;20425;-75
2021/05/21 10:47:46;;;;;;;1.38;0.22;;;;;;;;;;5017132;28;20044;-76
2021/05/21 10:50:17;;;;;;;0.22;0.20;;;;;;;;;;4959464;28;20436;-77
2021/05/21 10:52:56;;;;;;;1.00;0.40;;;;;;;;;;4968700;28;20066;-76
2021/05/21 10:55:53;;;;;;;1.10;0.40;;;;;;;;;;4975142;28;20617;-76
2021/05/21 10:58:34;;;;;;;1.05;0.40;;;;;;;;;;4983383;28;20026;-76
2021/05/21 11:01:06;;;;;;;1.00;0.47;;;;;;;;;;4964006;28;20580;-76
2021/05/21 11:03:31;;;;;;;0.60;0.35;;;;;;;;;;4994445;28;20034;-76
2021/05/21 11:06:19;;;;;;;0.93;0.40;;;;;;;;;;4962314;28;20038;-76
2021/05/21 11:08:44;;;;;;;0.50;0.30;;;;;;;;;;4975451;28;20033;-76
2021/05/21 11:11:13;;;;;;;0.73;0.40;;;;;;;;;;4975286;28;20405;-76
2021/05/21 11:13:38;;;;;;;0.70;0.30;;;;;;;;;;4958569;28;20541;-76
2021/05/21 11:16:04;;;;;;;0.50;0.30;;;;;;;;;;4975246;28;20114;-76
2021/05/21 11:18:30;;;;;;;0.60;0.30;;;;;;;;;;4966080;28;20121;-76
2021/05/21 11:21:05;;;;;;;0.35;0.20;;;;;;;;;;4982168;28;20092;-76
2021/05/21 11:23:38;;;;;;;0.47;0.30;;;;;;;;;;4997458;28;20133;-76
2021/05/21 11:26:12;;;;;;;1.25;0.40;;;;;;;;;;4981653;28;20109;-76
2021/05/21 11:28:38;;;;;;;0.82;0.40;;;;;;;;;;4975192;28;20026;-76
2021/05/21 11:31:17;;;;;;;1.05;0.30;;;;;;;;;;4944914;28;20026;-76
2021/05/21 11:33:47;;;;;;;1.10;0.50;;;;;;;;;;4964483;28;20588;-76
2021/05/21 11:36:12;;;;;;;0.63;0.30;;;;;;;;;;4987109;28;20052;-77
2021/05/21 11:38:38;;;;;;;1.17;0.40;;;;;;;;;;4995440;28;20480;-77
2021/05/21 11:41:04;;;;;;;0.73;0.30;;;;;;;;;;4994136;28;20029;-76
2021/05/21 11:43:29;;;;;;;0.63;0.28;;;;;;;;;;4976012;28;20034;-77
2021/05/21 11:45:56;;;;;;;0.67;0.40;;;;;;;;;;4958370;28;20042;-75
2021/05/21 11:48:40;;;;;;;0.43;0.30;;;;;;;;;;4974569;28;20038;-75
2021/05/21 11:51:10;;;;;;;0.52;0.30;;;;;;;;;;4984269;28;20118;-76
2021/05/21 11:54:04;;;;;;;0.82;0.30;;;;;;;;;;4978417;28;20508;-76
2021/05/21 11:56:35;;;;;;;1.60;0.40;;;;;;;;;;4978336;28;20084;-76
2021/05/21 11:59:05;;;;;;;0.77;0.30;;;;;;;;;;4998849;28;20030;-76
2021/05/21 12:01:31;;;;;;;3.63;0.50;;;;;;;;;;4958105;28;20536;-75
2021/05/21 12:03:57;;;;;;;0.80;0.40;;;;;;;;;;4958407;28;20137;-75
2021/05/21 12:06:22;;;;;;;0.88;0.30;;;;;;;;;;4961517;28;20037;-75
2021/05/21 12:08:48;;;;;;;0.67;0.30;;;;;;;;;;4992803;28;20029;-75
2021/05/21 12:11:14;;;;;;;0.70;0.37;;;;;;;;;;4994601;28;20052;-76
2021/05/21 12:13:40;;;;;;;1.50;0.50;;;;;;;;;;4976796;28;20045;-76
2021/05/21 12:16:12;;;;;;;0.80;0.40;;;;;;;;;;4958659;28;20066;-76
2021/05/21 12:18:38;;;;;;;1.30;0.30;;;;;;;;;;4974613;28;20038;-76
2021/05/21 12:21:03;;;;;;;0.87;0.40;;;;;;;;;;4978833;28;20055;-76
2021/05/21 12:23:39;;;;;;;0.83;0.30;;;;;;;;;;4982315;28;20026;-76
2021/05/21 12:26:06;;;;;;;1.42;0.40;;;;;;;;;;4961644;28;20050;-76
2021/05/21 12:28:31;;;;;;;3.67;0.45;;;;;;;;;;4977377;28;20042;-76
2021/05/21 12:31:02;;;;;;;0.90;0.40;;;;;;;;;;4980890;28;20064;-77
2021/05/21 12:33:29;;;;;;;2.33;0.57;;;;;;;;;;4980310;28;20079;-78
2021/05/21 12:35:54;;;;;;;1.88;0.52;;;;;;;;;;4961475;28;20053;-78
2021/05/21 12:38:23;;;;;;;0.93;0.40;;;;;;;;;;4960477;28;20505;-75
2021/05/21 12:40:52;;;;;;;1.88;0.57;;;;;;;;;;4963246;28;20482;-74
2021/05/21 12:43:18;;;;;;;0.70;0.40;;;;;;;;;;4961915;28;20037;-74
2021/05/21 12:46:03;;;;;;;1.90;0.60;;;;;;;;;;4959637;28;20034;-75
2021/05/21 12:48:40;;;;;;;0.63;0.30;;;;;;;;;;4962738;28;20064;-80
2021/05/21 12:51:19;;;;;;;0.83;0.40;;;;;;;;;;4965853;28;20704;-76
2021/05/21 12:53:46;;;;;;;0.98;0.32;;;;;;;;;;4968179;28;20273;-77
2021/05/21 12:56:30;;;;;;;1.42;0.40;;;;;;;;;;5022504;28;20096;-76
2021/05/21 12:58:55;;;;;;;1.52;0.40;;;;;;;;;;5005399;28;20030;-76
2021/05/21 13:01:20;;;;;;;1.37;0.50;;;;;;;;;;5007432;28;20034;-75
2021/05/21 13:03:53;;;;;;;0.40;0.30;;;;;;;;;;5019972;28;20046;-76
2021/05/21 13:06:29;;;;;;;0.95;0.40;;;;;;;;;;4995338;28;20022;-77
2021/05/21 13:08:56;;;;;;;1.25;0.57;;;;;;;;;;5021605;28;20035;-77
2021/05/21 13:11:21;;;;;;;1.13;0.40;;;;;;;;;;4981759;28;20026;-74
2021/05/21 13:13:47;;;;;;;0.93;0.43;;;;;;;;;;5005069;28;20575;-75
2021/05/21 13:16:12;;;;;;;1.43;0.40;;;;;;;;;;4977198;28;20435;-74
2021/05/21 13:18:39;;;;;;;0.57;0.33;;;;;;;;;;4971160;28;20524;-75
2021/05/21 13:21:09;;;;;;;1.48;0.40;;;;;;;;;;4976824;28;20026;-75
2021/05/21 13:23:34;;;;;;;0.60;0.30;;;;;;;;;;4944259;28;20026;-75
2021/05/21 13:26:06;;;;;;;1.03;0.40;;;;;;;;;;4962435;28;20404;-74
2021/05/21 13:28:39;;;;;;;1.10;0.40;;;;;;;;;;4986580;28;20030;-74
2021/05/21 13:31:04;;;;;;;1.23;0.40;;;;;;;;;;4960666;28;20045;-75
2021/05/21 13:33:29;;;;;;;1.27;0.33;;;;;;;;;;4975658;28;20030;-76
2021/05/21 13:35:55;;;;;;;0.73;0.30;;;;;;;;;;4964996;28;20086;-75
2021/05/21 13:38:22;;;;;;;0.70;0.30;;;;;;;;;;4978315;28;20064;-75
2021/05/21 13:40:48;;;;;;;0.40;0.20;;;;;;;;;;4998468;28;20030;-75
2021/05/21 13:43:17;;;;;;;1.37;0.30;;;;;;;;;;4982853;28;20036;-76
2021/05/21 13:45:43;;;;;;;1.08;0.40;;;;;;;;;;4994092;28;20033;-76
2021/05/21 13:48:08;;;;;;;1.03;0.40;;;;;;;;;;4976048;28;20034;-76
2021/05/21 13:50:34;;;;;;;0.87;0.40;;;;;;;;;;4957834;28;20058;-76
2021/05/21 13:53:00;;;;;;;0.60;0.38;;;;;;;;;;4991391;28;20046;-76
2021/05/21 13:55:25;;;;;;;0.80;0.40;;;;;;;;;;4965222;28;20097;-76
2021/05/21 13:57:50;;;;;;;0.93;0.40;;;;;;;;;;4991424;28;20020;-76
2021/05/21 14:00:16;;;;;;;0.93;0.30;;;;;;;;;;4973838;28;20034;-76
2021/05/21 14:02:42;;;;;;;0.80;0.40;;;;;;;;;;4973828;28;20018;-77
2021/05/21 14:05:07;;;;;;;0.97;0.43;;;;;;;;;;4976924;28;20121;-76
2021/05/21 14:07:33;;;;;;;1.20;0.40;;;;;;;;;;4964011;28;20512;-77
2021/05/21 14:10:00;;;;;;;0.73;0.30;;;;;;;;;;4959091;28;20038;-76
2021/05/21 14:12:25;;;;;;;1.08;0.60;;;;;;;;;;4977553;28;20022;-78
2021/05/21 14:14:50;;;;;;;1.70;0.30;;;;;;;;;;4961228;28;20041;-76
2021/05/21 14:17:16;;;;;;;0.90;0.30;;;;;;;;;;4970597;28;20069;-76
2021/05/21 14:19:46;;;;;;;1.00;0.30;;;;;;;;;;5014835;28;20028;-75
2021/05/21 14:22:12;;;;;;;0.57;0.30;;;;;;;;;;4998641;28;20397;-75
2021/05/21 14:24:39;;;;;;;0.67;0.30;;;;;;;;;;4998529;28;20053;-77
2021/05/21 14:27:05;;;;;;;1.27;0.30;;;;;;;;;;4998004;28;20064;-75
2021/05/21 14:29:30;;;;;;;0.87;0.30;;;;;;;;;;4979609;28;20061;-75
2021/05/21 14:31:55;;;;;;;1.10;0.40;;;;;;;;;;4996837;28;20057;-76
2021/05/21 14:34:24;;;;;;;0.90;0.40;;;;;;;;;;4949806;28;20054;-76
2021/05/21 14:36:50;;;;;;;1.02;0.40;;;;;;;;;;4978294;28;20029;-75
2021/05/21 14:39:15;;;;;;;0.73;0.40;;;;;;;;;;4982396;28;20026;-76
2021/05/21 14:41:40;;;;;;;0.70;0.40;;;;;;;;;;4982583;28;20447;-76
2021/05/21 14:44:07;;;;;;;0.80;0.30;;;;;;;;;;4982325;28;20037;-75